createdAt,value
2019-06-20T00:01:56.193Z,26.69
2019-06-20T00:04:29.980Z,26.67
2019-06-20T00:07:03.777Z,26.69
2019-06-20T00:09:37.694Z,26.65
2019-06-20T00:12:11.182Z,26.64
2019-06-20T00:14:46.216Z,26.56
2019-06-20T00:17:19.618Z,26.43
2019-06-20T00:19:53.930Z,26.43
2019-06-20T00:22:27.386Z,26.47
2019-06-20T00:25:02.931Z,26.50
2019-06-20T00:27:35.997Z,26.59
2019-06-20T00:30:09.667Z,26.63
2019-06-20T00:32:43.197Z,26.63
2019-06-20T00:35:16.971Z,26.60
2019-06-20T00:37:50.568Z,26.61
2019-06-20T00:40:24.176Z,26.54
2019-06-20T00:42:57.886Z,26.44
2019-06-20T00:45:31.072Z,26.47
2019-06-20T00:48:04.897Z,26.52
2019-06-20T00:50:38.384Z,26.57
2019-06-20T00:53:12.193Z,26.60
2019-06-20T00:55:45.502Z,26.64
2019-06-20T00:58:18.887Z,26.63
2019-06-20T01:00:52.620Z,26.60
2019-06-20T01:03:26.210Z,26.61
2019-06-20T01:06:00.508Z,26.62
2019-06-20T01:08:33.660Z,26.63
2019-06-20T01:11:07.519Z,26.65
2019-06-20T01:13:40.901Z,26.62
2019-06-20T01:16:15.423Z,26.45
2019-06-20T01:18:50.871Z,26.41
2019-06-20T01:21:24.860Z,26.42
2019-06-20T01:23:58.631Z,26.41
2019-06-20T01:26:32.190Z,26.38
2019-06-20T01:29:05.802Z,26.37
2019-06-20T01:31:39.418Z,26.31
2019-06-20T01:34:12.976Z,26.27
2019-06-20T01:43:19.504Z,25.99
2019-06-20T01:45:53.216Z,25.82
2019-06-20T01:48:26.988Z,25.85
2019-06-20T01:51:00.403Z,25.84
2019-06-20T01:53:34.091Z,25.83
2019-06-20T01:56:08.006Z,25.74
2019-06-20T01:58:41.355Z,25.70
2019-06-20T02:01:14.918Z,25.76
2019-06-20T02:03:48.349Z,25.73
2019-06-20T02:06:22.128Z,25.74
2019-06-20T02:08:55.726Z,25.69
2019-06-20T02:11:29.400Z,25.74
2019-06-20T02:14:07.198Z,25.73
2019-06-20T02:16:37.633Z,25.67
2019-06-20T02:26:28.334Z,25.45
2019-06-20T02:29:02.102Z,25.43
2019-06-20T02:31:35.608Z,25.45
2019-06-20T02:34:09.197Z,25.46
2019-06-20T02:36:43.193Z,25.52
2019-06-20T02:39:17.271Z,25.59
2019-06-20T02:41:52.061Z,25.46
2019-06-20T02:44:30.354Z,25.40
2019-06-20T02:47:00.402Z,25.39
2019-06-20T02:49:34.473Z,25.39
2019-06-20T02:52:08.226Z,25.42
2019-06-20T02:54:41.814Z,25.46
2019-06-20T02:57:15.902Z,25.51
2019-06-20T02:59:49.709Z,25.59
2019-06-20T03:02:23.275Z,25.65
2019-06-20T03:12:01.354Z,25.72
2019-06-20T03:14:45.043Z,25.75
2019-06-20T03:17:10.408Z,25.79
2019-06-20T03:19:43.511Z,25.86
2019-06-20T03:22:17.403Z,25.92
2019-06-20T03:24:50.693Z,26.01
2019-06-20T03:27:24.655Z,26.11
2019-06-20T03:29:58.014Z,26.18
2019-06-20T03:32:31.503Z,26.21
2019-06-20T03:35:06.389Z,26.27
2019-06-20T03:37:39.778Z,26.29
2019-06-20T03:47:30.197Z,26.13
2019-06-20T03:50:04.782Z,26.06
2019-06-20T03:52:38.081Z,26.05
2019-06-20T03:55:12.897Z,26.13
2019-06-20T03:57:46.228Z,26.26
2019-06-20T04:00:23.798Z,26.31
2019-06-20T04:02:57.107Z,26.33
2019-06-20T04:05:30.796Z,26.46
2019-06-20T04:08:04.182Z,26.57
2019-06-20T04:10:37.377Z,26.59
2019-06-20T04:13:10.775Z,26.80
2019-06-20T04:15:44.073Z,27.06
2019-06-20T04:18:17.458Z,27.38
2019-06-20T04:20:51.787Z,27.53
2019-06-20T04:23:25.179Z,27.89
2019-06-20T04:25:58.834Z,28.21
2019-06-20T04:28:32.691Z,28.68
2019-06-20T04:31:06.009Z,29.28
2019-06-20T04:33:39.903Z,29.70
2019-06-20T04:36:14.522Z,30.32
2019-06-20T04:38:48.127Z,30.89
2019-06-20T04:41:21.563Z,31.37
2019-06-20T04:43:55.242Z,31.47
2019-06-20T04:46:33.947Z,31.59
2019-06-20T04:49:07.660Z,31.98
2019-06-20T04:51:41.565Z,32.68
2019-06-20T04:54:14.927Z,33.30
2019-06-20T04:56:48.352Z,33.30
2019-06-20T04:59:22.046Z,33.86
2019-06-20T05:01:55.648Z,33.92
2019-06-20T05:04:28.938Z,33.77
2019-06-20T05:07:20.427Z,34.17
2019-06-20T05:09:54.014Z,34.69
2019-06-20T05:12:27.625Z,35.15
2019-06-20T05:15:01.019Z,35.37
2019-06-20T05:17:34.271Z,35.12
2019-06-20T05:20:07.965Z,34.88
2019-06-20T05:22:41.455Z,35.18
2019-06-20T05:25:16.279Z,35.38
2019-06-20T05:27:49.571Z,35.14
2019-06-20T05:30:23.395Z,35.05
2019-06-20T05:32:57.250Z,35.29
2019-06-20T05:35:30.784Z,35.45
2019-06-20T05:38:04.619Z,35.51
2019-06-20T05:40:38.619Z,35.03
2019-06-20T05:43:12.331Z,35.14
2019-06-20T05:45:48.837Z,35.18
2019-06-20T05:48:21.393Z,35.20
2019-06-20T05:50:54.719Z,35.30
2019-06-20T05:53:30.587Z,35.37
2019-06-20T05:56:04.217Z,35.37
2019-06-20T05:58:37.598Z,35.34
2019-06-20T06:01:11.809Z,35.30
2019-06-20T06:03:45.129Z,35.40
2019-06-20T06:06:18.419Z,35.43
2019-06-20T06:08:52.126Z,35.48
2019-06-20T06:11:25.574Z,35.25
2019-06-20T06:14:00.643Z,34.71
2019-06-20T06:16:34.772Z,34.38
2019-06-20T06:19:08.052Z,34.28
2019-06-20T06:21:41.855Z,34.40
2019-06-20T06:24:15.784Z,34.51
2019-06-20T06:26:49.074Z,34.63
2019-06-20T06:29:22.872Z,34.66
2019-06-20T06:31:56.267Z,34.59
2019-06-20T06:34:29.859Z,34.63
2019-06-20T06:37:03.076Z,34.41
2019-06-20T06:39:36.644Z,34.29
2019-06-20T06:42:09.960Z,34.30
2019-06-20T06:44:43.546Z,34.41
2019-06-20T06:47:17.668Z,34.25
2019-06-20T06:49:50.950Z,34.16
2019-06-20T06:52:24.146Z,34.35
2019-06-20T06:54:57.441Z,34.65
2019-06-20T06:57:30.741Z,34.66
2019-06-20T07:00:07.757Z,34.69
2019-06-20T07:02:41.005Z,34.69
2019-06-20T07:05:14.511Z,34.97
2019-06-20T07:07:48.572Z,35.08
2019-06-20T07:10:21.915Z,35.04
2019-06-20T07:12:55.264Z,35.03
2019-06-20T07:15:29.472Z,34.85
2019-06-20T07:18:04.936Z,34.96
2019-06-20T07:20:38.427Z,35.34
2019-06-20T07:23:11.767Z,35.55
2019-06-20T07:25:45.189Z,35.50
2019-06-20T07:28:19.108Z,35.38
2019-06-20T07:30:52.403Z,35.40
2019-06-20T07:33:25.725Z,35.63
2019-06-20T07:35:59.153Z,35.76
2019-06-20T07:38:34.502Z,35.92
2019-06-20T07:41:07.901Z,35.87
2019-06-20T07:43:42.653Z,35.52
2019-06-20T07:46:16.637Z,35.14
2019-06-20T07:48:50.791Z,34.66
2019-06-20T07:51:24.194Z,34.52
2019-06-20T07:53:57.699Z,34.58
2019-06-20T07:56:31.450Z,34.83
2019-06-20T07:59:04.942Z,35.14
2019-06-20T08:01:38.349Z,35.36
2019-06-20T08:04:11.633Z,35.38
2019-06-20T08:06:45.676Z,35.02
2019-06-20T08:09:22.000Z,34.76
2019-06-20T08:11:53.970Z,34.46
2019-06-20T08:14:27.785Z,34.53
2019-06-20T08:17:01.265Z,34.72
2019-06-20T08:19:35.080Z,34.68
2019-06-20T08:22:08.905Z,34.65
2019-06-20T08:24:42.680Z,34.42
2019-06-20T08:27:16.286Z,34.47
2019-06-20T08:29:52.556Z,34.68
2019-06-20T08:32:26.580Z,34.68
2019-06-20T08:35:00.602Z,34.92
2019-06-20T08:37:34.892Z,35.35
2019-06-20T08:40:09.009Z,35.66
2019-06-20T08:42:42.913Z,35.76
2019-06-20T08:45:16.637Z,35.70
2019-06-20T08:47:50.708Z,35.92
2019-06-20T08:50:24.336Z,36.35
2019-06-20T08:52:57.975Z,36.67
2019-06-20T08:55:32.158Z,36.78
2019-06-20T08:58:06.124Z,36.57
2019-06-20T09:00:39.905Z,36.14
2019-06-20T09:03:13.083Z,36.12
2019-06-20T09:05:46.353Z,36.37
2019-06-20T09:08:20.085Z,36.53
2019-06-20T09:10:54.329Z,36.58
2019-06-20T09:13:27.660Z,36.58
2019-06-20T09:16:01.475Z,36.69
2019-06-20T09:18:35.092Z,36.57
2019-06-20T09:21:09.702Z,36.48
2019-06-20T09:23:43.026Z,36.35
2019-06-20T09:26:17.334Z,36.38
2019-06-20T09:28:51.047Z,36.37
2019-06-20T09:31:25.428Z,36.54
2019-06-20T09:34:02.436Z,36.67
2019-06-20T09:36:33.974Z,36.64
2019-06-20T09:39:08.490Z,36.30
2019-06-20T09:41:42.191Z,35.97
2019-06-20T09:44:15.813Z,35.53
2019-06-20T09:46:49.802Z,35.54
2019-06-20T09:49:24.024Z,35.84
2019-06-20T09:51:58.651Z,36.14
2019-06-20T09:54:31.959Z,35.95
2019-06-20T09:57:05.458Z,36.10
2019-06-20T09:59:39.236Z,36.31
2019-06-20T10:02:12.645Z,36.33
2019-06-20T10:04:47.562Z,36.63
2019-06-20T10:07:21.274Z,37.17
2019-06-20T10:09:54.360Z,37.39
2019-06-20T10:12:27.780Z,37.57
2019-06-20T10:15:01.455Z,37.93
2019-06-20T10:17:35.059Z,37.79
2019-06-20T10:20:08.911Z,37.36
2019-06-20T10:22:42.395Z,37.07
2019-06-20T10:25:15.772Z,36.64
2019-06-20T10:27:49.721Z,36.04
2019-06-20T10:30:24.311Z,36.14
2019-06-20T10:32:57.901Z,36.55
2019-06-20T10:35:31.599Z,36.62
2019-06-20T10:38:05.222Z,36.73
2019-06-20T10:40:38.619Z,36.65
2019-06-20T10:43:11.995Z,36.56
2019-06-20T10:45:47.419Z,36.30
2019-06-20T10:48:20.838Z,36.13
2019-06-20T10:50:57.249Z,36.05
2019-06-20T10:53:30.921Z,35.70
2019-06-20T10:56:04.853Z,35.26
2019-06-20T10:58:38.213Z,35.04
2019-06-20T11:01:11.716Z,34.67
2019-06-20T11:03:46.083Z,34.46
2019-06-20T11:06:19.414Z,34.49
2019-06-20T11:08:53.156Z,34.34
2019-06-20T11:11:27.054Z,34.21
2019-06-20T11:14:00.544Z,34.24
2019-06-20T11:16:33.930Z,34.35
2019-06-20T11:19:07.355Z,34.36
2019-06-20T11:21:41.595Z,34.31
2019-06-20T11:24:15.183Z,34.26
2019-06-20T11:26:48.751Z,34.20
2019-06-20T11:29:22.454Z,34.09
2019-06-20T11:31:56.063Z,34.02
2019-06-20T11:34:29.836Z,33.90
2019-06-20T11:37:03.538Z,33.69
2019-06-20T11:39:37.460Z,33.78
2019-06-20T11:42:10.789Z,33.85
2019-06-20T11:44:44.470Z,33.91
2019-06-20T11:47:20.558Z,34.08
2019-06-20T11:49:52.996Z,34.03
2019-06-20T11:52:27.109Z,34.05
2019-06-20T11:55:00.939Z,33.99
2019-06-20T11:57:34.733Z,33.84
2019-06-20T12:00:08.651Z,33.59
2019-06-20T12:02:43.954Z,33.47
2019-06-20T12:05:17.162Z,33.50
2019-06-20T12:07:50.403Z,33.44
2019-06-20T12:10:23.868Z,33.39
2019-06-20T12:12:57.446Z,33.36
2019-06-20T12:15:30.741Z,33.43
2019-06-20T12:18:04.446Z,33.57
2019-06-20T12:20:39.594Z,33.70
2019-06-20T12:23:12.980Z,33.72
2019-06-20T12:25:46.683Z,33.59
2019-06-20T12:28:20.397Z,33.49
2019-06-20T12:30:53.995Z,33.47
2019-06-20T12:33:27.596Z,33.49
2019-06-20T12:36:01.201Z,33.54
2019-06-20T12:38:34.813Z,33.56
2019-06-20T12:41:08.406Z,33.65
2019-06-20T12:43:42.211Z,33.70
2019-06-20T12:46:16.034Z,33.75
2019-06-20T12:48:49.623Z,33.74
2019-06-20T12:51:23.325Z,33.78
2019-06-20T12:53:56.676Z,33.79
2019-06-20T12:56:29.998Z,33.88
2019-06-20T12:59:04.011Z,33.90
2019-06-20T13:01:42.765Z,33.83
2019-06-20T13:04:12.452Z,33.69
2019-06-20T13:06:46.958Z,33.49
2019-06-20T13:09:20.764Z,33.42
2019-06-20T13:11:54.461Z,33.33
2019-06-20T13:14:27.673Z,33.35
2019-06-20T13:17:01.486Z,33.36
2019-06-20T13:19:35.452Z,33.38
2019-06-20T13:22:08.797Z,33.38
2019-06-20T13:24:42.782Z,33.43
2019-06-20T13:27:16.718Z,33.44
2019-06-20T13:29:50.247Z,33.42
2019-06-20T13:32:23.751Z,33.42
2019-06-20T13:34:57.145Z,33.41
2019-06-20T13:37:30.656Z,33.37
2019-06-20T13:40:05.730Z,33.43
2019-06-20T13:42:40.244Z,33.44
2019-06-20T13:45:26.362Z,33.46
2019-06-20T13:48:00.075Z,33.45
2019-06-20T13:50:33.360Z,33.48
2019-06-20T13:53:07.070Z,33.50
2019-06-20T13:55:41.218Z,33.48
2019-06-20T13:58:15.300Z,33.43
2019-06-20T14:00:48.794Z,33.41
2019-06-20T14:03:23.743Z,33.41
2019-06-20T14:05:56.997Z,33.38
2019-06-20T14:08:30.639Z,33.37
2019-06-20T14:11:03.887Z,33.41
2019-06-20T14:13:37.427Z,33.43
2019-06-20T14:16:11.531Z,33.40
2019-06-20T14:18:46.547Z,33.37
2019-06-20T14:21:19.931Z,33.30
2019-06-20T14:23:53.891Z,33.15
2019-06-20T14:26:27.555Z,33.07
2019-06-20T14:29:01.154Z,33.02
2019-06-20T14:31:34.954Z,32.96
2019-06-20T14:34:08.651Z,32.96
2019-06-20T14:36:42.881Z,33.02
2019-06-20T14:39:16.877Z,33.06
2019-06-20T14:41:51.458Z,33.06
2019-06-20T14:44:25.025Z,33.10
2019-06-20T14:46:59.443Z,33.11
2019-06-20T14:49:32.928Z,33.04
2019-06-20T14:52:07.347Z,32.96
2019-06-20T14:54:40.956Z,32.93
2019-06-20T14:57:14.401Z,32.93
2019-06-20T14:59:48.369Z,32.94
2019-06-20T15:02:37.181Z,32.91
2019-06-20T15:04:57.710Z,32.88
2019-06-20T15:07:31.204Z,32.83
2019-06-20T15:10:07.462Z,32.79
2019-06-20T15:12:40.749Z,32.81
2019-06-20T15:15:14.251Z,32.78
2019-06-20T15:17:50.310Z,32.75
2019-06-20T15:20:23.027Z,32.73
2019-06-20T15:22:57.480Z,32.72
2019-06-20T15:25:30.824Z,32.67
2019-06-20T15:28:04.416Z,32.63
2019-06-20T15:30:38.138Z,32.65
2019-06-20T15:33:11.986Z,32.60
2019-06-20T15:35:45.298Z,32.56
2019-06-20T15:38:19.150Z,32.51
2019-06-20T15:40:53.411Z,32.47
2019-06-20T15:43:26.965Z,32.35
2019-06-20T15:46:00.962Z,32.45
2019-06-20T15:48:34.486Z,32.48
2019-06-20T15:51:08.254Z,32.48
2019-06-20T15:53:41.706Z,32.53
2019-06-20T15:56:15.695Z,32.77
2019-06-20T15:58:48.964Z,32.93
2019-06-20T16:01:22.178Z,32.86
2019-06-20T16:03:57.001Z,32.72
2019-06-20T16:06:32.947Z,32.62
2019-06-20T16:09:09.084Z,32.57
2019-06-20T16:11:42.099Z,32.45
2019-06-20T16:14:18.036Z,32.35
2019-06-20T16:16:50.728Z,32.35
2019-06-20T16:19:24.344Z,32.27
2019-06-20T16:21:58.028Z,32.21
2019-06-20T16:24:31.418Z,32.13
2019-06-20T16:27:05.023Z,32.13
2019-06-20T16:29:38.624Z,32.10
2019-06-20T16:32:12.347Z,32.07
2019-06-20T16:34:46.333Z,32.03
2019-06-20T16:37:20.238Z,31.83
2019-06-20T16:39:53.950Z,31.96
2019-06-20T16:42:27.231Z,31.89
2019-06-20T16:45:00.839Z,31.84
2019-06-20T16:47:34.072Z,31.78
2019-06-20T16:50:08.380Z,31.74
2019-06-20T16:52:42.093Z,31.67
2019-06-20T16:55:15.447Z,31.62
2019-06-20T16:57:49.283Z,31.54
2019-06-20T17:00:22.626Z,31.51
2019-06-20T17:02:56.274Z,31.49
2019-06-20T17:05:29.442Z,31.44
2019-06-20T17:08:02.973Z,31.36
2019-06-20T17:10:36.962Z,31.36
2019-06-20T17:13:11.786Z,31.35
2019-06-20T17:15:45.492Z,31.34
2019-06-20T17:18:18.816Z,31.31
2019-06-20T17:20:52.915Z,31.29
2019-06-20T17:23:26.125Z,31.27
2019-06-20T17:26:01.577Z,31.23
2019-06-20T17:28:35.959Z,31.21
2019-06-20T17:31:09.253Z,31.15
2019-06-20T17:33:56.849Z,31.08
2019-06-20T17:36:18.834Z,31.00
2019-06-20T17:38:52.305Z,30.94
2019-06-20T17:41:26.229Z,30.79
2019-06-20T17:43:59.801Z,30.89
2019-06-20T17:46:35.214Z,30.82
2019-06-20T17:49:08.547Z,30.79
2019-06-20T17:51:41.865Z,30.78
2019-06-20T17:54:15.672Z,30.76
2019-06-20T17:56:49.349Z,30.61
2019-06-20T17:59:23.171Z,30.70
2019-06-20T18:01:56.675Z,30.58
2019-06-20T18:04:30.014Z,30.57
2019-06-20T18:07:03.712Z,30.54
2019-06-20T18:09:37.078Z,30.48
2019-06-20T18:12:12.182Z,30.47
2019-06-20T18:14:45.497Z,30.44
2019-06-20T18:17:19.287Z,30.44
2019-06-20T18:19:53.416Z,30.38
2019-06-20T18:22:26.908Z,30.28
2019-06-20T18:25:00.121Z,30.26
2019-06-20T18:27:33.594Z,30.19
2019-06-20T18:30:08.819Z,30.14
2019-06-20T18:32:42.360Z,30.13
2019-06-20T18:35:15.731Z,30.10
2019-06-20T18:37:49.227Z,30.05
2019-06-20T18:40:22.856Z,30.03
2019-06-20T18:42:56.132Z,29.97
2019-06-20T18:45:29.714Z,29.93
2019-06-20T18:48:03.111Z,29.85
2019-06-20T18:50:36.323Z,29.85
2019-06-20T18:53:09.925Z,29.80
2019-06-20T18:55:43.307Z,29.82
2019-06-20T18:58:16.900Z,29.76
2019-06-20T19:00:50.910Z,29.77
2019-06-20T19:03:24.727Z,29.77
2019-06-20T19:05:58.260Z,29.72
2019-06-20T19:08:32.346Z,29.68
2019-06-20T19:11:05.530Z,29.64
2019-06-20T19:13:39.041Z,29.55
2019-06-20T19:16:13.708Z,29.55
2019-06-20T19:18:46.934Z,29.47
2019-06-20T19:21:20.889Z,29.42
2019-06-20T19:23:55.515Z,29.44
2019-06-20T19:26:28.890Z,29.40
2019-06-20T19:29:03.409Z,29.36
2019-06-20T19:31:36.794Z,29.35
2019-06-20T19:34:10.488Z,29.38
2019-06-20T19:36:43.884Z,29.29
2019-06-20T19:39:17.713Z,29.25
2019-06-20T19:41:50.995Z,29.27
2019-06-20T19:44:24.697Z,29.30
2019-06-20T19:46:58.189Z,29.29
2019-06-20T19:49:31.577Z,29.26
2019-06-20T19:52:05.321Z,29.22
2019-06-20T19:54:39.299Z,29.10
2019-06-20T19:57:12.910Z,29.01
2019-06-20T19:59:46.730Z,28.91
2019-06-20T20:02:20.403Z,28.92
2019-06-20T20:04:53.614Z,28.96
2019-06-20T20:07:27.305Z,28.97
2019-06-20T20:10:01.414Z,28.97
2019-06-20T20:12:35.024Z,28.94
2019-06-20T20:15:09.624Z,28.84
2019-06-20T20:17:42.849Z,28.79
2019-06-20T20:20:16.670Z,28.69
2019-06-20T20:22:50.157Z,28.64
2019-06-20T20:25:23.660Z,28.64
2019-06-20T20:27:57.335Z,28.60
2019-06-20T20:30:31.059Z,28.60
2019-06-20T20:33:05.569Z,28.62
2019-06-20T20:35:39.182Z,28.55
2019-06-20T20:38:12.489Z,28.53
2019-06-20T20:40:46.498Z,28.50
2019-06-20T20:43:19.999Z,28.51
2019-06-20T20:45:53.694Z,28.45
2019-06-20T20:48:27.019Z,28.44
2019-06-20T20:51:02.198Z,28.43
2019-06-20T20:53:35.531Z,28.42
2019-06-20T20:56:09.126Z,28.40
2019-06-20T20:58:42.523Z,28.29
2019-06-20T21:01:35.487Z,28.30
2019-06-20T21:04:08.142Z,28.31
2019-06-20T21:06:41.522Z,28.28
2019-06-20T21:09:15.753Z,28.25
2019-06-20T21:11:49.137Z,28.12
2019-06-20T21:14:22.778Z,28.11
2019-06-20T21:16:56.456Z,28.11
2019-06-20T21:19:30.053Z,28.03
2019-06-20T21:22:03.883Z,27.94
2019-06-20T21:24:37.304Z,27.92
2019-06-20T21:27:11.475Z,27.93
2019-06-20T21:29:45.092Z,27.94
2019-06-20T21:32:18.475Z,27.98
2019-06-20T21:34:51.966Z,27.99
2019-06-20T21:37:25.766Z,27.97
2019-06-20T21:39:59.195Z,27.95
2019-06-20T21:42:33.029Z,27.94
2019-06-20T21:45:09.646Z,27.93
2019-06-20T21:47:42.943Z,27.90
2019-06-20T21:50:16.370Z,27.85
2019-06-20T21:52:50.063Z,27.85
2019-06-20T21:55:25.067Z,27.86
2019-06-20T21:57:58.484Z,27.86
2019-06-20T22:00:40.588Z,27.81
2019-06-20T22:03:15.716Z,27.72
2019-06-20T22:05:49.106Z,27.68
2019-06-20T22:08:22.633Z,27.68
2019-06-20T22:10:56.403Z,27.64
2019-06-20T22:13:30.200Z,27.62
2019-06-20T22:16:03.926Z,27.64
2019-06-20T22:18:37.252Z,27.63
2019-06-20T22:21:10.750Z,27.61
2019-06-20T22:23:44.533Z,27.62
2019-06-20T22:26:18.127Z,27.57
2019-06-20T22:28:51.820Z,27.56
2019-06-20T22:31:25.320Z,27.51
2019-06-20T22:33:59.440Z,27.49
2019-06-20T22:36:40.173Z,27.48
2019-06-20T22:39:09.524Z,27.46
2019-06-20T22:41:43.395Z,27.42
2019-06-20T22:44:16.761Z,27.38
2019-06-20T22:46:50.471Z,27.34
2019-06-20T22:49:24.045Z,27.27
2019-06-20T22:51:57.441Z,27.26
2019-06-20T22:54:31.128Z,27.18
2019-06-20T22:57:04.818Z,27.12
2019-06-20T22:59:38.094Z,27.13
2019-06-20T23:02:11.617Z,27.16
2019-06-20T23:04:45.417Z,27.17
2019-06-20T23:07:19.215Z,27.18
2019-06-20T23:09:52.645Z,27.11
2019-06-20T23:12:26.247Z,27.01
2019-06-20T23:14:59.945Z,27.00
2019-06-20T23:17:33.630Z,27.00
2019-06-20T23:20:07.995Z,27.03
2019-06-20T23:22:41.121Z,27.01
2019-06-20T23:25:14.412Z,26.99
2019-06-20T23:27:48.218Z,26.98
2019-06-20T23:30:24.018Z,26.94
2019-06-20T23:32:57.267Z,26.83
2019-06-20T23:35:31.089Z,26.77
2019-06-20T23:38:04.359Z,26.78
2019-06-20T23:40:37.805Z,26.82
2019-06-20T23:43:11.469Z,26.82
2019-06-20T23:45:45.132Z,26.79
2019-06-20T23:48:18.777Z,26.72
2019-06-20T23:50:52.058Z,26.74
2019-06-20T23:53:27.263Z,26.74
2019-06-20T23:56:01.139Z,26.72
2019-06-20T23:58:34.432Z,26.71
